sensor_id;sensor_type;location;lat;lon;timestamp;temperature;humidity
27647;DHT22;42229;51.230;6.240;2023-03-01T00:01:50;0.90;98.10
27647;DHT22;42229;51.230;6.240;2023-03-01T00:04:16;0.90;98.10
27647;DHT22;42229;51.230;6.240;2023-03-01T00:06:42;0.90;98.30
27647;DHT22;42229;51.230;6.240;2023-03-01T00:09:12;0.90;98.50
27647;DHT22;42229;51.230;6.240;2023-03-01T00:11:41;0.90;98.50
27647;DHT22;42229;51.230;6.240;2023-03-01T00:14:08;0.90;98.40
27647;DHT22;42229;51.230;6.240;2023-03-01T00:16:35;1.00;98.70
27647;DHT22;42229;51.230;6.240;2023-03-01T00:19:04;0.90;99.50
27647;DHT22;42229;51.230;6.240;2023-03-01T00:21:31;1.00;99.30
27647;DHT22;42229;51.230;6.240;2023-03-01T00:23:57;1.00;99.60
27647;DHT22;42229;51.230;6.240;2023-03-01T00:26:24;0.90;99.40
27647;DHT22;42229;51.230;6.240;2023-03-01T00:28:51;1.00;99.20
27647;DHT22;42229;51.230;6.240;2023-03-01T00:31:19;1.00;99.10
27647;DHT22;42229;51.230;6.240;2023-03-01T00:33:47;0.90;99.20
27647;DHT22;42229;51.230;6.240;2023-03-01T00:36:14;0.90;99.50
27647;DHT22;42229;51.230;6.240;2023-03-01T00:38:42;0.90;99.40
27647;DHT22;42229;51.230;6.240;2023-03-01T00:41:11;0.90;99.10
27647;DHT22;42229;51.230;6.240;2023-03-01T00:43:41;0.90;99.20
27647;DHT22;42229;51.230;6.240;2023-03-01T00:46:09;0.90;99.30
27647;DHT22;42229;51.230;6.240;2023-03-01T00:48:39;0.90;99.30
27647;DHT22;42229;51.230;6.240;2023-03-01T00:51:10;0.80;99.30
27647;DHT22;42229;51.230;6.240;2023-03-01T00:53:43;0.80;99.40
27647;DHT22;42229;51.230;6.240;2023-03-01T00:56:10;0.80;99.90
27647;DHT22;42229;51.230;6.240;2023-03-01T00:58:37;0.80;99.70
27647;DHT22;42229;51.230;6.240;2023-03-01T01:01:11;0.70;99.60
27647;DHT22;42229;51.230;6.240;2023-03-01T01:03:50;0.70;99.60
27647;DHT22;42229;51.230;6.240;2023-03-01T01:08:48;0.70;99.40
27647;DHT22;42229;51.230;6.240;2023-03-01T01:11:16;0.60;99.70
27647;DHT22;42229;51.230;6.240;2023-03-01T01:13:43;0.60;99.50
27647;DHT22;42229;51.230;6.240;2023-03-01T01:16:11;0.50;99.40
27647;DHT22;42229;51.230;6.240;2023-03-01T01:18:37;0.50;99.30
27647;DHT22;42229;51.230;6.240;2023-03-01T01:21:11;0.50;99.30
27647;DHT22;42229;51.230;6.240;2023-03-01T01:23:39;0.50;99.20
27647;DHT22;42229;51.230;6.240;2023-03-01T01:26:06;0.40;99.20
27647;DHT22;42229;51.230;6.240;2023-03-01T01:28:34;0.40;99.20
27647;DHT22;42229;51.230;6.240;2023-03-01T01:31:00;0.30;99.10
27647;DHT22;42229;51.230;6.240;2023-03-01T01:33:27;0.30;99.10
27647;DHT22;42229;51.230;6.240;2023-03-01T01:35:53;0.20;99.00
27647;DHT22;42229;51.230;6.240;2023-03-01T01:38:19;0.20;99.00
27647;DHT22;42229;51.230;6.240;2023-03-01T01:40:47;0.20;99.00
27647;DHT22;42229;51.230;6.240;2023-03-01T01:43:19;0.10;99.00
27647;DHT22;42229;51.230;6.240;2023-03-01T01:45:50;0.10;99.00
27647;DHT22;42229;51.230;6.240;2023-03-01T01:48:19;0.00;99.00
27647;DHT22;42229;51.230;6.240;2023-03-01T01:50:47;0.00;99.10
27647;DHT22;42229;51.230;6.240;2023-03-01T01:53:19;0.00;99.10
27647;DHT22;42229;51.230;6.240;2023-03-01T01:55:47;-0.10;99.10
27647;DHT22;42229;51.230;6.240;2023-03-01T01:58:18;-0.10;99.10
27647;DHT22;42229;51.230;6.240;2023-03-01T02:00:45;-0.10;99.10
27647;DHT22;42229;51.230;6.240;2023-03-01T02:03:13;-0.20;99.00
27647;DHT22;42229;51.230;6.240;2023-03-01T02:08:27;-0.30;99.00
27647;DHT22;42229;51.230;6.240;2023-03-01T02:10:56;-0.30;99.10
27647;DHT22;42229;51.230;6.240;2023-03-01T02:13:23;-0.40;99.00
27647;DHT22;42229;51.230;6.240;2023-03-01T02:15:49;-0.30;99.10
27647;DHT22;42229;51.230;6.240;2023-03-01T02:18:17;-0.40;99.10
27647;DHT22;42229;51.230;6.240;2023-03-01T02:20:49;-0.50;99.10
27647;DHT22;42229;51.230;6.240;2023-03-01T02:23:22;-0.50;99.10
27647;DHT22;42229;51.230;6.240;2023-03-01T02:25:52;-0.50;99.20
27647;DHT22;42229;51.230;6.240;2023-03-01T02:28:40;-0.50;99.20
27647;DHT22;42229;51.230;6.240;2023-03-01T02:31:07;-0.60;99.20
27647;DHT22;42229;51.230;6.240;2023-03-01T02:33:53;-0.60;99.30
27647;DHT22;42229;51.230;6.240;2023-03-01T02:36:22;-0.60;99.50
27647;DHT22;42229;51.230;6.240;2023-03-01T02:38:52;-0.60;99.80
27647;DHT22;42229;51.230;6.240;2023-03-01T02:41:20;-0.70;99.80
27647;DHT22;42229;51.230;6.240;2023-03-01T02:43:47;-0.70;99.90
27647;DHT22;42229;51.230;6.240;2023-03-01T02:46:17;-0.60;99.90
27647;DHT22;42229;51.230;6.240;2023-03-01T02:48:47;-0.60;99.90
27647;DHT22;42229;51.230;6.240;2023-03-01T02:54:02;-0.60;99.90
27647;DHT22;42229;51.230;6.240;2023-03-01T02:56:51;-0.60;99.90
27647;DHT22;42229;51.230;6.240;2023-03-01T02:59:21;-0.60;99.90
27647;DHT22;42229;51.230;6.240;2023-03-01T03:01:49;-0.60;99.90
27647;DHT22;42229;51.230;6.240;2023-03-01T03:04:17;-0.60;99.90
27647;DHT22;42229;51.230;6.240;2023-03-01T03:06:48;-0.60;99.90
27647;DHT22;42229;51.230;6.240;2023-03-01T03:09:15;-0.60;99.90
27647;DHT22;42229;51.230;6.240;2023-03-01T03:11:42;-0.60;99.90
27647;DHT22;42229;51.230;6.240;2023-03-01T03:14:09;-0.60;99.90
27647;DHT22;42229;51.230;6.240;2023-03-01T03:16:40;-0.60;99.90
27647;DHT22;42229;51.230;6.240;2023-03-01T03:19:10;-0.60;99.90
27647;DHT22;42229;51.230;6.240;2023-03-01T03:21:37;-0.60;99.90
27647;DHT22;42229;51.230;6.240;2023-03-01T03:24:03;-0.60;99.90
27647;DHT22;42229;51.230;6.240;2023-03-01T03:26:30;-0.60;99.90
27647;DHT22;42229;51.230;6.240;2023-03-01T03:28:57;-0.70;99.90
27647;DHT22;42229;51.230;6.240;2023-03-01T03:31:23;-0.70;99.90
27647;DHT22;42229;51.230;6.240;2023-03-01T03:33:50;-0.70;99.90
27647;DHT22;42229;51.230;6.240;2023-03-01T03:36:17;-0.70;99.90
27647;DHT22;42229;51.230;6.240;2023-03-01T03:38:45;-0.70;99.90
27647;DHT22;42229;51.230;6.240;2023-03-01T03:41:15;-0.70;99.90
27647;DHT22;42229;51.230;6.240;2023-03-01T03:43:42;-0.70;99.90
27647;DHT22;42229;51.230;6.240;2023-03-01T03:46:09;-0.70;99.90
27647;DHT22;42229;51.230;6.240;2023-03-01T03:48:37;-0.70;99.90
27647;DHT22;42229;51.230;6.240;2023-03-01T03:51:09;-0.70;99.90
27647;DHT22;42229;51.230;6.240;2023-03-01T03:53:37;-0.70;99.90
27647;DHT22;42229;51.230;6.240;2023-03-01T03:56:03;-0.70;99.90
27647;DHT22;42229;51.230;6.240;2023-03-01T03:58:29;-0.70;99.90
27647;DHT22;42229;51.230;6.240;2023-03-01T04:00:56;-0.70;99.90
27647;DHT22;42229;51.230;6.240;2023-03-01T04:03:23;-0.60;99.90
27647;DHT22;42229;51.230;6.240;2023-03-01T04:05:51;-0.60;99.90
27647;DHT22;42229;51.230;6.240;2023-03-01T04:08:18;-0.70;99.90
27647;DHT22;42229;51.230;6.240;2023-03-01T04:10:47;-0.60;99.90
27647;DHT22;42229;51.230;6.240;2023-03-01T04:13:16;-0.60;99.90
27647;DHT22;42229;51.230;6.240;2023-03-01T04:15:46;-0.60;99.90
27647;DHT22;42229;51.230;6.240;2023-03-01T04:18:14;-0.60;99.90
27647;DHT22;42229;51.230;6.240;2023-03-01T04:20:42;-0.60;99.90
27647;DHT22;42229;51.230;6.240;2023-03-01T04:23:16;-0.60;99.90
27647;DHT22;42229;51.230;6.240;2023-03-01T04:25:47;-0.60;99.90
27647;DHT22;42229;51.230;6.240;2023-03-01T04:28:24;-0.60;99.90
27647;DHT22;42229;51.230;6.240;2023-03-01T04:31:03;-0.60;99.90
27647;DHT22;42229;51.230;6.240;2023-03-01T04:33:39;-0.60;99.90
27647;DHT22;42229;51.230;6.240;2023-03-01T04:36:07;-0.60;99.90
27647;DHT22;42229;51.230;6.240;2023-03-01T04:38:35;-0.60;99.90
27647;DHT22;42229;51.230;6.240;2023-03-01T04:41:06;-0.60;99.90
27647;DHT22;42229;51.230;6.240;2023-03-01T04:43:34;-0.60;99.90
27647;DHT22;42229;51.230;6.240;2023-03-01T04:46:01;-0.70;99.90
27647;DHT22;42229;51.230;6.240;2023-03-01T04:48:29;-0.70;99.90
27647;DHT22;42229;51.230;6.240;2023-03-01T04:50:56;-0.70;99.90
27647;DHT22;42229;51.230;6.240;2023-03-01T04:53:22;-0.70;99.90
27647;DHT22;42229;51.230;6.240;2023-03-01T04:55:48;-0.80;99.90
27647;DHT22;42229;51.230;6.240;2023-03-01T04:58:15;-0.80;99.90
27647;DHT22;42229;51.230;6.240;2023-03-01T05:00:41;-0.80;99.90
27647;DHT22;42229;51.230;6.240;2023-03-01T05:03:08;-0.80;99.90
27647;DHT22;42229;51.230;6.240;2023-03-01T05:05:35;-0.80;99.90
27647;DHT22;42229;51.230;6.240;2023-03-01T05:08:04;-0.80;99.90
27647;DHT22;42229;51.230;6.240;2023-03-01T05:10:32;-0.80;99.90
27647;DHT22;42229;51.230;6.240;2023-03-01T05:13:01;-0.80;99.90
27647;DHT22;42229;51.230;6.240;2023-03-01T05:15:28;-0.80;99.90
27647;DHT22;42229;51.230;6.240;2023-03-01T05:17:56;-0.80;99.90
27647;DHT22;42229;51.230;6.240;2023-03-01T05:20:27;-0.80;99.90
27647;DHT22;42229;51.230;6.240;2023-03-01T05:22:59;-0.80;99.90
27647;DHT22;42229;51.230;6.240;2023-03-01T05:25:26;-0.80;99.90
27647;DHT22;42229;51.230;6.240;2023-03-01T05:27:52;-0.80;99.90
27647;DHT22;42229;51.230;6.240;2023-03-01T05:30:18;-0.80;99.90
27647;DHT22;42229;51.230;6.240;2023-03-01T05:32:49;-0.80;99.90
27647;DHT22;42229;51.230;6.240;2023-03-01T05:35:21;-0.80;99.90
27647;DHT22;42229;51.230;6.240;2023-03-01T05:37:49;-0.80;99.90
27647;DHT22;42229;51.230;6.240;2023-03-01T05:40:19;-0.80;99.90
27647;DHT22;42229;51.230;6.240;2023-03-01T05:42:48;-0.80;99.90
27647;DHT22;42229;51.230;6.240;2023-03-01T05:45:15;-0.80;99.90
27647;DHT22;42229;51.230;6.240;2023-03-01T05:47:43;-0.80;99.90
27647;DHT22;42229;51.230;6.240;2023-03-01T05:50:12;-0.80;99.90
27647;DHT22;42229;51.230;6.240;2023-03-01T05:52:49;-0.80;99.90
27647;DHT22;42229;51.230;6.240;2023-03-01T05:55:17;-0.80;99.90
27647;DHT22;42229;51.230;6.240;2023-03-01T05:57:45;-0.90;99.90
27647;DHT22;42229;51.230;6.240;2023-03-01T06:00:12;-0.90;99.90
27647;DHT22;42229;51.230;6.240;2023-03-01T06:02:39;-0.90;99.90
27647;DHT22;42229;51.230;6.240;2023-03-01T06:05:06;-0.90;99.90
27647;DHT22;42229;51.230;6.240;2023-03-01T06:07:34;-1.00;99.90
27647;DHT22;42229;51.230;6.240;2023-03-01T06:10:01;-1.00;99.90
27647;DHT22;42229;51.230;6.240;2023-03-01T06:12:32;-1.00;99.90
27647;DHT22;42229;51.230;6.240;2023-03-01T06:14:59;-1.00;99.90
27647;DHT22;42229;51.230;6.240;2023-03-01T06:17:25;-1.00;99.90
27647;DHT22;42229;51.230;6.240;2023-03-01T06:19:52;-1.10;99.90
27647;DHT22;42229;51.230;6.240;2023-03-01T06:22:18;-1.10;99.90
27647;DHT22;42229;51.230;6.240;2023-03-01T06:24:44;-1.10;99.90
27647;DHT22;42229;51.230;6.240;2023-03-01T06:27:10;-1.10;99.90
27647;DHT22;42229;51.230;6.240;2023-03-01T06:29:37;-1.10;99.90
27647;DHT22;42229;51.230;6.240;2023-03-01T06:32:03;-1.20;99.90
27647;DHT22;42229;51.230;6.240;2023-03-01T06:34:29;-1.20;99.90
27647;DHT22;42229;51.230;6.240;2023-03-01T06:36:56;-1.20;99.90
27647;DHT22;42229;51.230;6.240;2023-03-01T06:39:22;-1.20;99.90
27647;DHT22;42229;51.230;6.240;2023-03-01T06:41:48;-1.20;99.90
27647;DHT22;42229;51.230;6.240;2023-03-01T06:44:14;-1.20;99.90
27647;DHT22;42229;51.230;6.240;2023-03-01T06:46:41;-1.20;99.90
27647;DHT22;42229;51.230;6.240;2023-03-01T06:49:07;-1.20;99.90
27647;DHT22;42229;51.230;6.240;2023-03-01T06:51:38;-1.20;99.90
27647;DHT22;42229;51.230;6.240;2023-03-01T06:54:04;-1.20;99.90
27647;DHT22;42229;51.230;6.240;2023-03-01T06:56:31;-1.20;99.90
27647;DHT22;42229;51.230;6.240;2023-03-01T06:58:58;-1.20;99.90
27647;DHT22;42229;51.230;6.240;2023-03-01T07:01:24;-1.20;99.90
27647;DHT22;42229;51.230;6.240;2023-03-01T07:03:51;-1.20;99.90
27647;DHT22;42229;51.230;6.240;2023-03-01T07:06:17;-1.20;99.90
27647;DHT22;42229;51.230;6.240;2023-03-01T07:08:43;-1.20;99.90
27647;DHT22;42229;51.230;6.240;2023-03-01T07:11:09;-1.20;99.90
27647;DHT22;42229;51.230;6.240;2023-03-01T07:13:35;-1.20;99.90
27647;DHT22;42229;51.230;6.240;2023-03-01T07:16:02;-1.20;99.90
27647;DHT22;42229;51.230;6.240;2023-03-01T07:18:28;-1.20;99.90
27647;DHT22;42229;51.230;6.240;2023-03-01T07:20:54;-1.20;99.90
27647;DHT22;42229;51.230;6.240;2023-03-01T07:23:21;-1.10;99.90
27647;DHT22;42229;51.230;6.240;2023-03-01T07:25:51;-1.10;99.90
27647;DHT22;42229;51.230;6.240;2023-03-01T07:28:18;-1.10;99.90
27647;DHT22;42229;51.230;6.240;2023-03-01T07:30:45;-1.00;99.90
27647;DHT22;42229;51.230;6.240;2023-03-01T07:33:11;-1.00;99.90
27647;DHT22;42229;51.230;6.240;2023-03-01T07:35:37;-0.90;99.90
27647;DHT22;42229;51.230;6.240;2023-03-01T07:38:03;-0.80;99.90
27647;DHT22;42229;51.230;6.240;2023-03-01T07:40:29;-0.80;99.90
27647;DHT22;42229;51.230;6.240;2023-03-01T07:42:56;-0.80;99.90
27647;DHT22;42229;51.230;6.240;2023-03-01T07:45:26;-0.70;99.90
27647;DHT22;42229;51.230;6.240;2023-03-01T07:47:53;-0.60;99.90
27647;DHT22;42229;51.230;6.240;2023-03-01T07:50:20;-0.50;99.90
27647;DHT22;42229;51.230;6.240;2023-03-01T07:52:47;-0.40;99.90
27647;DHT22;42229;51.230;6.240;2023-03-01T07:55:15;-0.30;99.90
27647;DHT22;42229;51.230;6.240;2023-03-01T07:57:42;-0.20;99.90
27647;DHT22;42229;51.230;6.240;2023-03-01T08:00:10;-0.10;99.90
27647;DHT22;42229;51.230;6.240;2023-03-01T08:02:39;0.00;99.90
27647;DHT22;42229;51.230;6.240;2023-03-01T08:05:08;0.10;99.90
27647;DHT22;42229;51.230;6.240;2023-03-01T08:07:35;0.20;99.90
27647;DHT22;42229;51.230;6.240;2023-03-01T08:10:02;0.30;99.90
27647;DHT22;42229;51.230;6.240;2023-03-01T08:12:28;0.40;99.90
27647;DHT22;42229;51.230;6.240;2023-03-01T08:14:55;0.50;99.90
27647;DHT22;42229;51.230;6.240;2023-03-01T08:17:21;0.60;99.90
27647;DHT22;42229;51.230;6.240;2023-03-01T08:19:47;0.70;99.90
27647;DHT22;42229;51.230;6.240;2023-03-01T08:22:13;0.80;99.90
27647;DHT22;42229;51.230;6.240;2023-03-01T08:24:40;1.00;99.90
27647;DHT22;42229;51.230;6.240;2023-03-01T08:27:06;1.10;99.90
27647;DHT22;42229;51.230;6.240;2023-03-01T08:29:32;1.20;99.90
27647;DHT22;42229;51.230;6.240;2023-03-01T08:31:59;1.30;99.90
27647;DHT22;42229;51.230;6.240;2023-03-01T08:34:25;1.40;99.90
27647;DHT22;42229;51.230;6.240;2023-03-01T08:36:52;1.50;99.90
27647;DHT22;42229;51.230;6.240;2023-03-01T08:39:18;1.60;99.90
27647;DHT22;42229;51.230;6.240;2023-03-01T08:41:46;1.80;99.90
27647;DHT22;42229;51.230;6.240;2023-03-01T08:44:13;1.80;99.90
27647;DHT22;42229;51.230;6.240;2023-03-01T08:46:42;2.00;99.90
27647;DHT22;42229;51.230;6.240;2023-03-01T08:49:16;2.10;99.90
27647;DHT22;42229;51.230;6.240;2023-03-01T08:51:44;2.20;99.90
27647;DHT22;42229;51.230;6.240;2023-03-01T08:54:14;2.30;99.90
27647;DHT22;42229;51.230;6.240;2023-03-01T08:56:42;2.40;99.90
27647;DHT22;42229;51.230;6.240;2023-03-01T08:59:09;2.50;99.90
27647;DHT22;42229;51.230;6.240;2023-03-01T09:01:39;2.60;99.90
27647;DHT22;42229;51.230;6.240;2023-03-01T09:04:06;2.80;99.90
27647;DHT22;42229;51.230;6.240;2023-03-01T09:06:33;2.90;99.90
27647;DHT22;42229;51.230;6.240;2023-03-01T09:09:00;3.00;99.90
27647;DHT22;42229;51.230;6.240;2023-03-01T09:11:27;3.10;99.90
27647;DHT22;42229;51.230;6.240;2023-03-01T09:13:53;3.20;99.90
27647;DHT22;42229;51.230;6.240;2023-03-01T09:16:20;3.30;99.90
27647;DHT22;42229;51.230;6.240;2023-03-01T09:18:51;3.40;99.90
27647;DHT22;42229;51.230;6.240;2023-03-01T09:21:19;3.50;99.90
27647;DHT22;42229;51.230;6.240;2023-03-01T09:23:47;3.60;99.90
27647;DHT22;42229;51.230;6.240;2023-03-01T09:26:20;3.70;99.90
27647;DHT22;42229;51.230;6.240;2023-03-01T09:28:48;3.80;99.90
27647;DHT22;42229;51.230;6.240;2023-03-01T09:31:15;4.00;99.90
27647;DHT22;42229;51.230;6.240;2023-03-01T09:33:42;4.10;99.90
27647;DHT22;42229;51.230;6.240;2023-03-01T09:36:13;4.20;99.90
27647;DHT22;42229;51.230;6.240;2023-03-01T09:38:40;4.30;99.90
27647;DHT22;42229;51.230;6.240;2023-03-01T09:46:42;4.60;99.90
27647;DHT22;42229;51.230;6.240;2023-03-01T09:49:19;4.70;99.90
27647;DHT22;42229;51.230;6.240;2023-03-01T09:54:30;4.90;99.90
27647;DHT22;42229;51.230;6.240;2023-03-01T09:56:59;5.00;99.90
27647;DHT22;42229;51.230;6.240;2023-03-01T09:59:38;5.10;99.90
27647;DHT22;42229;51.230;6.240;2023-03-01T10:04:54;5.30;99.90
27647;DHT22;42229;51.230;6.240;2023-03-01T10:10:10;5.50;99.90
27647;DHT22;42229;51.230;6.240;2023-03-01T10:13:02;5.70;99.40
27647;DHT22;42229;51.230;6.240;2023-03-01T10:15:42;5.80;99.40
27647;DHT22;42229;51.230;6.240;2023-03-01T10:18:12;5.90;97.50
27647;DHT22;42229;51.230;6.240;2023-03-01T10:23:27;6.10;97.20
27647;DHT22;42229;51.230;6.240;2023-03-01T10:25:59;6.20;99.30
27647;DHT22;42229;51.230;6.240;2023-03-01T10:28:36;6.30;98.70
27647;DHT22;42229;51.230;6.240;2023-03-01T10:31:19;6.40;97.20
27647;DHT22;42229;51.230;6.240;2023-03-01T10:33:48;6.50;97.40
27647;DHT22;42229;51.230;6.240;2023-03-01T10:36:17;6.60;97.20
27647;DHT22;42229;51.230;6.240;2023-03-01T10:38:50;6.70;96.30
27647;DHT22;42229;51.230;6.240;2023-03-01T10:41:20;6.80;96.70
27647;DHT22;42229;51.230;6.240;2023-03-01T10:43:51;6.90;96.30
27647;DHT22;42229;51.230;6.240;2023-03-01T10:46:30;7.00;95.10
27647;DHT22;42229;51.230;6.240;2023-03-01T10:51:47;7.20;94.80
27647;DHT22;42229;51.230;6.240;2023-03-01T10:54:25;7.40;96.10
27647;DHT22;42229;51.230;6.240;2023-03-01T10:56:55;7.40;93.30
27647;DHT22;42229;51.230;6.240;2023-03-01T10:59:27;7.50;92.50
27647;DHT22;42229;51.230;6.240;2023-03-01T11:04:35;7.80;91.90
27647;DHT22;42229;51.230;6.240;2023-03-01T11:07:02;7.80;92.00
27647;DHT22;42229;51.230;6.240;2023-03-01T11:09:32;7.90;91.10
27647;DHT22;42229;51.230;6.240;2023-03-01T11:12:03;8.00;94.00
27647;DHT22;42229;51.230;6.240;2023-03-01T11:14:37;8.20;92.50
27647;DHT22;42229;51.230;6.240;2023-03-01T11:17:14;8.30;90.70
27647;DHT22;42229;51.230;6.240;2023-03-01T11:20:01;8.40;91.70
27647;DHT22;42229;51.230;6.240;2023-03-01T11:22:36;8.50;90.40
27647;DHT22;42229;51.230;6.240;2023-03-01T11:25:23;8.60;91.20
27647;DHT22;42229;51.230;6.240;2023-03-01T11:27:51;8.80;90.00
27647;DHT22;42229;51.230;6.240;2023-03-01T11:35:56;9.30;89.00
27647;DHT22;42229;51.230;6.240;2023-03-01T11:38:27;9.40;89.00
27647;DHT22;42229;51.230;6.240;2023-03-01T11:41:01;9.60;89.30
27647;DHT22;42229;51.230;6.240;2023-03-01T11:49:15;10.30;90.80
27647;DHT22;42229;51.230;6.240;2023-03-01T11:52:46;10.60;95.90
27647;DHT22;42229;51.230;6.240;2023-03-01T12:06:01;12.10;79.90
27647;DHT22;42229;51.230;6.240;2023-03-01T12:08:48;12.40;69.50
27647;DHT22;42229;51.230;6.240;2023-03-01T12:19:41;13.60;67.70
27647;DHT22;42229;51.230;6.240;2023-03-01T12:22:50;13.80;65.70
27647;DHT22;42229;51.230;6.240;2023-03-01T12:25:53;14.20;65.00
27647;DHT22;42229;51.230;6.240;2023-03-01T12:39:56;15.60;58.40
27647;DHT22;42229;51.230;6.240;2023-03-01T12:50:47;16.60;53.70
27647;DHT22;42229;51.230;6.240;2023-03-01T12:53:25;16.60;55.10
27647;DHT22;42229;51.230;6.240;2023-03-01T12:56:08;16.70;51.70
27647;DHT22;42229;51.230;6.240;2023-03-01T13:01:42;17.00;57.30
27647;DHT22;42229;51.230;6.240;2023-03-01T13:12:52;17.40;47.70
27647;DHT22;42229;51.230;6.240;2023-03-01T13:17:48;17.60;47.70
27647;DHT22;42229;51.230;6.240;2023-03-01T13:20:31;17.60;45.70
27647;DHT22;42229;51.230;6.240;2023-03-01T13:25:32;17.50;44.10
27647;DHT22;42229;51.230;6.240;2023-03-01T13:31:02;17.50;47.40
27647;DHT22;42229;51.230;6.240;2023-03-01T13:33:33;17.50;48.40
27647;DHT22;42229;51.230;6.240;2023-03-01T13:36:06;17.50;46.60
27647;DHT22;42229;51.230;6.240;2023-03-01T13:41:12;17.80;46.20
27647;DHT22;42229;51.230;6.240;2023-03-01T13:43:40;17.80;45.30
27647;DHT22;42229;51.230;6.240;2023-03-01T13:46:09;17.90;47.70
27647;DHT22;42229;51.230;6.240;2023-03-01T13:48:37;17.80;42.90
27647;DHT22;42229;51.230;6.240;2023-03-01T13:51:08;17.80;45.30
27647;DHT22;42229;51.230;6.240;2023-03-01T13:53:37;17.80;49.70
27647;DHT22;42229;51.230;6.240;2023-03-01T13:56:11;17.90;46.60
27647;DHT22;42229;51.230;6.240;2023-03-01T14:01:28;17.80;47.80
27647;DHT22;42229;51.230;6.240;2023-03-01T14:03:58;17.70;46.20
27647;DHT22;42229;51.230;6.240;2023-03-01T14:06:26;17.80;48.60
27647;DHT22;42229;51.230;6.240;2023-03-01T14:09:01;17.80;44.90
27647;DHT22;42229;51.230;6.240;2023-03-01T14:19:32;17.60;43.50
27647;DHT22;42229;51.230;6.240;2023-03-01T14:22:00;17.40;47.30
27647;DHT22;42229;51.230;6.240;2023-03-01T14:24:30;17.30;48.20
27647;DHT22;42229;51.230;6.240;2023-03-01T14:27:00;17.30;47.00
27647;DHT22;42229;51.230;6.240;2023-03-01T14:29:33;17.20;45.60
27647;DHT22;42229;51.230;6.240;2023-03-01T14:32:11;17.10;46.50
27647;DHT22;42229;51.230;6.240;2023-03-01T14:34:44;17.00;44.60
27647;DHT22;42229;51.230;6.240;2023-03-01T14:37:20;16.90;46.30
27647;DHT22;42229;51.230;6.240;2023-03-01T14:39:48;16.80;46.00
27647;DHT22;42229;51.230;6.240;2023-03-01T14:42:15;16.70;45.10
27647;DHT22;42229;51.230;6.240;2023-03-01T14:44:42;16.70;43.50
27647;DHT22;42229;51.230;6.240;2023-03-01T14:47:11;16.70;43.70
27647;DHT22;42229;51.230;6.240;2023-03-01T14:49:39;16.50;45.20
27647;DHT22;42229;51.230;6.240;2023-03-01T14:52:06;16.50;46.80
27647;DHT22;42229;51.230;6.240;2023-03-01T14:54:41;16.50;46.80
27647;DHT22;42229;51.230;6.240;2023-03-01T14:57:42;16.40;47.00
27647;DHT22;42229;51.230;6.240;2023-03-01T15:00:01;16.40;45.80
27647;DHT22;42229;51.230;6.240;2023-03-01T15:02:31;16.40;46.50
27647;DHT22;42229;51.230;6.240;2023-03-01T15:04:58;16.30;47.60
27647;DHT22;42229;51.230;6.240;2023-03-01T15:07:31;16.30;44.50
27647;DHT22;42229;51.230;6.240;2023-03-01T15:10:00;16.30;45.60
27647;DHT22;42229;51.230;6.240;2023-03-01T15:14:53;16.30;48.20
27647;DHT22;42229;51.230;6.240;2023-03-01T15:17:28;16.30;44.20
27647;DHT22;42229;51.230;6.240;2023-03-01T15:19:56;16.30;43.10
27647;DHT22;42229;51.230;6.240;2023-03-01T15:22:23;16.30;43.80
27647;DHT22;42229;51.230;6.240;2023-03-01T15:24:51;16.30;45.20
27647;DHT22;42229;51.230;6.240;2023-03-01T15:27:19;16.20;45.90
27647;DHT22;42229;51.230;6.240;2023-03-01T15:34:54;16.00;44.00
27647;DHT22;42229;51.230;6.240;2023-03-01T15:40:25;15.70;46.90
27647;DHT22;42229;51.230;6.240;2023-03-01T15:43:01;15.60;46.30
27647;DHT22;42229;51.230;6.240;2023-03-01T15:45:29;15.30;46.70
27647;DHT22;42229;51.230;6.240;2023-03-01T15:47:57;15.20;47.20
27647;DHT22;42229;51.230;6.240;2023-03-01T15:50:28;15.00;46.70
27647;DHT22;42229;51.230;6.240;2023-03-01T15:53:01;14.90;46.70
27647;DHT22;42229;51.230;6.240;2023-03-01T15:55:30;14.70;47.10
27647;DHT22;42229;51.230;6.240;2023-03-01T15:58:21;14.50;48.70
27647;DHT22;42229;51.230;6.240;2023-03-01T16:00:49;14.40;47.50
27647;DHT22;42229;51.230;6.240;2023-03-01T16:03:17;14.20;47.30
27647;DHT22;42229;51.230;6.240;2023-03-01T16:05:47;14.00;47.20
27647;DHT22;42229;51.230;6.240;2023-03-01T16:08:16;13.70;48.00
27647;DHT22;42229;51.230;6.240;2023-03-01T16:10:42;13.50;48.60
27647;DHT22;42229;51.230;6.240;2023-03-01T16:13:12;13.10;47.50
27647;DHT22;42229;51.230;6.240;2023-03-01T16:15:39;12.80;48.60
27647;DHT22;42229;51.230;6.240;2023-03-01T16:18:05;12.50;48.80
27647;DHT22;42229;51.230;6.240;2023-03-01T16:20:33;12.20;49.00
27647;DHT22;42229;51.230;6.240;2023-03-01T16:23:01;12.00;49.90
27647;DHT22;42229;51.230;6.240;2023-03-01T16:25:28;11.80;50.50
27647;DHT22;42229;51.230;6.240;2023-03-01T16:27:55;11.60;51.70
27647;DHT22;42229;51.230;6.240;2023-03-01T16:30:22;11.60;51.20
27647;DHT22;42229;51.230;6.240;2023-03-01T16:32:49;11.60;53.00
27647;DHT22;42229;51.230;6.240;2023-03-01T16:35:16;11.60;51.30
27647;DHT22;42229;51.230;6.240;2023-03-01T16:37:44;11.60;52.70
27647;DHT22;42229;51.230;6.240;2023-03-01T16:40:18;11.60;51.40
27647;DHT22;42229;51.230;6.240;2023-03-01T16:42:44;11.60;53.10
27647;DHT22;42229;51.230;6.240;2023-03-01T16:45:11;11.60;52.30
27647;DHT22;42229;51.230;6.240;2023-03-01T16:47:37;11.60;52.80
27647;DHT22;42229;51.230;6.240;2023-03-01T16:50:03;11.50;53.10
27647;DHT22;42229;51.230;6.240;2023-03-01T16:52:30;11.40;53.50
27647;DHT22;42229;51.230;6.240;2023-03-01T16:54:56;11.20;53.50
27647;DHT22;42229;51.230;6.240;2023-03-01T16:57:24;11.00;53.60
27647;DHT22;42229;51.230;6.240;2023-03-01T16:59:54;10.70;54.20
27647;DHT22;42229;51.230;6.240;2023-03-01T17:02:20;10.50;54.40
27647;DHT22;42229;51.230;6.240;2023-03-01T17:04:53;10.20;54.90
27647;DHT22;42229;51.230;6.240;2023-03-01T17:07:20;10.00;55.50
27647;DHT22;42229;51.230;6.240;2023-03-01T17:09:47;9.70;55.90
27647;DHT22;42229;51.230;6.240;2023-03-01T17:12:14;9.50;56.40
27647;DHT22;42229;51.230;6.240;2023-03-01T17:14:41;9.30;56.80
27647;DHT22;42229;51.230;6.240;2023-03-01T17:17:07;9.10;57.20
27647;DHT22;42229;51.230;6.240;2023-03-01T17:19:34;8.90;58.10
27647;DHT22;42229;51.230;6.240;2023-03-01T17:22:03;8.80;58.10
27647;DHT22;42229;51.230;6.240;2023-03-01T17:24:37;8.60;58.40
27647;DHT22;42229;51.230;6.240;2023-03-01T17:27:04;8.40;59.20
27647;DHT22;42229;51.230;6.240;2023-03-01T17:29:31;8.30;59.00
27647;DHT22;42229;51.230;6.240;2023-03-01T17:31:57;8.20;59.30
27647;DHT22;42229;51.230;6.240;2023-03-01T17:34:23;8.00;59.50
27647;DHT22;42229;51.230;6.240;2023-03-01T17:36:50;7.80;59.80
27647;DHT22;42229;51.230;6.240;2023-03-01T17:39:17;7.70;60.30
27647;DHT22;42229;51.230;6.240;2023-03-01T17:41:50;7.50;61.00
27647;DHT22;42229;51.230;6.240;2023-03-01T17:44:17;7.40;61.00
27647;DHT22;42229;51.230;6.240;2023-03-01T17:46:43;7.30;61.30
27647;DHT22;42229;51.230;6.240;2023-03-01T17:49:10;7.20;62.10
27647;DHT22;42229;51.230;6.240;2023-03-01T17:51:36;7.10;62.70
27647;DHT22;42229;51.230;6.240;2023-03-01T17:54:02;7.00;62.90
27647;DHT22;42229;51.230;6.240;2023-03-01T17:56:29;6.90;63.00